sensor_id;sensor_type;location;lat;lon;timestamp;pressure;altitude;pressure_sealevel;temperature;humidity
19600;BME280;9947;57.722;12.012;2023-02-28T00:01:21;102659.34;;;-2.18;100.00
19600;BME280;9947;57.722;12.012;2023-02-28T00:03:49;102663.78;;;-2.19;100.00
19600;BME280;9947;57.722;12.012;2023-02-28T00:06:17;102656.72;;;-2.18;100.00
19600;BME280;9947;57.722;12.012;2023-02-28T00:08:50;102665.56;;;-2.16;100.00
19600;BME280;9947;57.722;12.012;2023-02-28T00:11:19;102659.38;;;-2.12;100.00
19600;BME280;9947;57.722;12.012;2023-02-28T00:13:47;102658.56;;;-2.06;100.00
19600;BME280;9947;57.722;12.012;2023-02-28T00:16:16;102655.88;;;-2.11;100.00
19600;BME280;9947;57.722;12.012;2023-02-28T00:18:44;102657.56;;;-2.25;100.00
19600;BME280;9947;57.722;12.012;2023-02-28T00:21:14;102660.97;;;-2.38;100.00
19600;BME280;9947;57.722;12.012;2023-02-28T00:23:42;102658.31;;;-2.40;100.00
19600;BME280;9947;57.722;12.012;2023-02-28T00:26:15;102665.38;;;-2.40;100.00
19600;BME280;9947;57.722;12.012;2023-02-28T00:28:42;102661.81;;;-2.47;100.00
19600;BME280;9947;57.722;12.012;2023-02-28T00:31:09;102661.81;;;-2.47;100.00
19600;BME280;9947;57.722;12.012;2023-02-28T00:33:36;102662.66;;;-2.50;100.00
19600;BME280;9947;57.722;12.012;2023-02-28T00:36:04;102654.72;;;-2.50;100.00
19600;BME280;9947;57.722;12.012;2023-02-28T00:38:33;102655.63;;;-2.47;100.00
19600;BME280;9947;57.722;12.012;2023-02-28T00:41:00;102666.22;;;-2.44;100.00
19600;BME280;9947;57.722;12.012;2023-02-28T00:43:33;102659.09;;;-2.55;100.00
19600;BME280;9947;57.722;12.012;2023-02-28T00:46:01;102656.38;;;-2.64;100.00
19600;BME280;9947;57.722;12.012;2023-02-28T00:48:34;102654.56;;;-2.66;100.00
19600;BME280;9947;57.722;12.012;2023-02-28T00:51:02;102646.63;;;-2.69;100.00
19600;BME280;9947;57.722;12.012;2023-02-28T00:53:29;102646.59;;;-2.74;100.00
19600;BME280;9947;57.722;12.012;2023-02-28T00:55:59;102654.47;;;-2.80;100.00
19600;BME280;9947;57.722;12.012;2023-02-28T00:58:26;102654.44;;;-2.85;100.00
19600;BME280;9947;57.722;12.012;2023-02-28T01:00:53;102653.59;;;-2.82;100.00
19600;BME280;9947;57.722;12.012;2023-02-28T01:03:21;102655.38;;;-2.80;100.00
19600;BME280;9947;57.722;12.012;2023-02-28T01:05:48;102646.53;;;-2.80;100.00
19600;BME280;9947;57.722;12.012;2023-02-28T01:08:15;102643.84;;;-2.85;100.00
19600;BME280;9947;57.722;12.012;2023-02-28T01:10:52;102648.25;;;-2.85;100.00
19600;BME280;9947;57.722;12.012;2023-02-28T01:13:20;102649.03;;;-2.94;100.00
19600;BME280;9947;57.722;12.012;2023-02-28T01:15:50;102639.28;;;-3.02;100.00
19600;BME280;9947;57.722;12.012;2023-02-28T01:18:18;102641.03;;;-3.04;100.00
19600;BME280;9947;57.722;12.012;2023-02-28T01:20:45;102641.91;;;-3.04;100.00
19600;BME280;9947;57.722;12.012;2023-02-28T01:23:20;102634.00;;;-3.01;100.00
19600;BME280;9947;57.722;12.012;2023-02-28T01:25:54;102639.31;;;-2.96;100.00
19600;BME280;9947;57.722;12.012;2023-02-28T01:28:23;102637.53;;;-2.99;100.00
19600;BME280;9947;57.722;12.012;2023-02-28T01:30:59;102636.63;;;-3.04;100.00
19600;BME280;9947;57.722;12.012;2023-02-28T01:33:27;102647.16;;;-3.10;100.00
19600;BME280;9947;57.722;12.012;2023-02-28T01:35:57;102640.97;;;-3.11;100.00
19600;BME280;9947;57.722;12.012;2023-02-28T01:38:24;102644.50;;;-3.08;100.00
19600;BME280;9947;57.722;12.012;2023-02-28T01:40:52;102640.88;;;-3.17;100.00
19600;BME280;9947;57.722;12.012;2023-02-28T01:43:24;102632.06;;;-3.16;100.00
19600;BME280;9947;57.722;12.012;2023-02-28T01:45:53;102636.56;;;-3.12;100.00
19600;BME280;9947;57.722;12.012;2023-02-28T01:48:25;102625.03;;;-3.15;100.00
19600;BME280;9947;57.722;12.012;2023-02-28T01:50:55;102630.31;;;-3.15;100.00
19600;BME280;9947;57.722;12.012;2023-02-28T01:53:29;102630.31;;;-3.15;100.00
19600;BME280;9947;57.722;12.012;2023-02-28T01:55:58;102617.97;;;-3.16;100.00
19600;BME280;9947;57.722;12.012;2023-02-28T01:58:27;102615.31;;;-3.16;100.00
19600;BME280;9947;57.722;12.012;2023-02-28T02:01:03;102615.31;;;-3.15;100.00
19600;BME280;9947;57.722;12.012;2023-02-28T02:03:31;102602.16;;;-3.12;100.00
19600;BME280;9947;57.722;12.012;2023-02-28T02:05:58;102612.81;;;-3.04;100.00
19600;BME280;9947;57.722;12.012;2023-02-28T02:08:28;102615.47;;;-3.01;100.00
19600;BME280;9947;57.722;12.012;2023-02-28T02:10:57;102612.75;;;-3.08;100.00
19600;BME280;9947;57.722;12.012;2023-02-28T02:13:57;102619.69;;;-3.21;100.00
19600;BME280;9947;57.722;12.012;2023-02-28T02:16:36;102616.94;;;-3.30;100.00
19600;BME280;9947;57.722;12.012;2023-02-28T02:19:17;102611.63;;;-3.35;100.00
19600;BME280;9947;57.722;12.012;2023-02-28T02:22:14;102613.28;;;-3.42;100.00
19600;BME280;9947;57.722;12.012;2023-02-28T02:25:04;102611.50;;;-3.46;100.00
19600;BME280;9947;57.722;12.012;2023-02-28T02:28:11;102609.00;;;-3.32;100.00
19600;BME280;9947;57.722;12.012;2023-02-28T02:36:44;102595.75;;;-3.35;100.00
19600;BME280;9947;57.722;12.012;2023-02-28T02:39:19;102594.81;;;-3.38;100.00
19600;BME280;9947;57.722;12.012;2023-02-28T02:41:59;102597.44;;;-3.42;100.00
19600;BME280;9947;57.722;12.012;2023-02-28T02:44:31;102593.03;;;-3.39;100.00
19600;BME280;9947;57.722;12.012;2023-02-28T02:47:08;102586.84;;;-3.42;100.00
19600;BME280;9947;57.722;12.012;2023-02-28T02:49:38;102584.19;;;-3.43;100.00
19600;BME280;9947;57.722;12.012;2023-02-28T02:52:11;102580.75;;;-3.37;100.00
19600;BME280;9947;57.722;12.012;2023-02-28T02:54:43;102583.44;;;-3.31;100.00
19600;BME280;9947;57.722;12.012;2023-02-28T02:57:14;102572.91;;;-3.28;100.00
19600;BME280;9947;57.722;12.012;2023-02-28T02:59:42;102579.00;;;-3.34;100.00
19600;BME280;9947;57.722;12.012;2023-02-28T03:02:12;102573.63;;;-3.40;100.00
19600;BME280;9947;57.722;12.012;2023-02-28T03:04:48;102581.47;;;-3.51;100.00
19600;BME280;9947;57.722;12.012;2023-02-28T03:07:19;102589.31;;;-3.61;100.00
19600;BME280;9947;57.722;12.012;2023-02-28T03:09:50;102600.59;;;-3.73;100.00
19600;BME280;9947;57.722;12.012;2023-02-28T03:12:19;102593.53;;;-3.76;100.00
19600;BME280;9947;57.722;12.012;2023-02-28T03:14:55;102590.84;;;-3.79;100.00
19600;BME280;9947;57.722;12.012;2023-02-28T03:17:45;102588.22;;;-3.77;100.00
19600;BME280;9947;57.722;12.012;2023-02-28T03:20:21;102593.50;;;-3.77;100.00
19600;BME280;9947;57.722;12.012;2023-02-28T03:23:08;102594.53;;;-3.64;100.00
19600;BME280;9947;57.722;12.012;2023-02-28T03:25:43;102606.13;;;-3.52;100.00
19600;BME280;9947;57.722;12.012;2023-02-28T03:28:15;102602.69;;;-3.43;100.00
19600;BME280;9947;57.722;12.012;2023-02-28T03:30:47;102598.31;;;-3.41;100.00
19600;BME280;9947;57.722;12.012;2023-02-28T03:33:21;102607.09;;;-3.45;100.00
19600;BME280;9947;57.722;12.012;2023-02-28T03:35:53;102595.59;;;-3.49;100.00
19600;BME280;9947;57.722;12.012;2023-02-28T03:38:27;102592.06;;;-3.51;100.00
19600;BME280;9947;57.722;12.012;2023-02-28T03:41:06;102588.47;;;-3.56;100.00
19600;BME280;9947;57.722;12.012;2023-02-28T03:43:39;102583.19;;;-3.56;100.00
19600;BME280;9947;57.722;12.012;2023-02-28T03:46:09;102582.31;;;-3.55;100.00
19600;BME280;9947;57.722;12.012;2023-02-28T03:48:40;102583.22;;;-3.51;100.00
19600;BME280;9947;57.722;12.012;2023-02-28T03:51:12;102579.75;;;-3.47;100.00
19600;BME280;9947;57.722;12.012;2023-02-28T03:53:45;102580.56;;;-3.54;100.00
19600;BME280;9947;57.722;12.012;2023-02-28T03:56:17;102588.44;;;-3.60;100.00
19600;BME280;9947;57.722;12.012;2023-02-28T03:58:49;102596.28;;;-3.66;100.00
19600;BME280;9947;57.722;12.012;2023-02-28T04:01:21;102606.81;;;-3.69;100.00
19600;BME280;9947;57.722;12.012;2023-02-28T04:03:50;102606.69;;;-3.82;100.00
19600;BME280;9947;57.722;12.012;2023-02-28T04:06:18;102604.88;;;-3.84;100.00
19600;BME280;9947;57.722;12.012;2023-02-28T04:08:47;102604.91;;;-3.83;100.00
19600;BME280;9947;57.722;12.012;2023-02-28T04:11:23;102599.75;;;-3.70;100.00
19600;BME280;9947;57.722;12.012;2023-02-28T04:13:51;102602.44;;;-3.67;100.00
19600;BME280;9947;57.722;12.012;2023-02-28T04:16:24;102598.84;;;-3.73;100.00
19600;BME280;9947;57.722;12.012;2023-02-28T04:18:52;102598.94;;;-3.65;100.00
19600;BME280;9947;57.722;12.012;2023-02-28T04:21:18;102594.50;;;-3.66;100.00
19600;BME280;9947;57.722;12.012;2023-02-28T04:23:52;102589.31;;;-3.61;100.00
19600;BME280;9947;57.722;12.012;2023-02-28T04:26:18;102584.91;;;-3.61;100.00
19600;BME280;9947;57.722;12.012;2023-02-28T04:28:45;102583.94;;;-3.64;100.00
19600;BME280;9947;57.722;12.012;2023-02-28T04:31:12;102586.44;;;-3.80;100.00
19600;BME280;9947;57.722;12.012;2023-02-28T04:33:39;102586.25;;;-3.93;100.00
19600;BME280;9947;57.722;12.012;2023-02-28T04:36:08;102595.84;;;-4.03;100.00
19600;BME280;9947;57.722;12.012;2023-02-28T04:38:36;102596.69;;;-4.04;100.00
19600;BME280;9947;57.722;12.012;2023-02-28T04:41:05;102594.13;;;-3.99;100.00
19600;BME280;9947;57.722;12.012;2023-02-28T04:43:35;102591.50;;;-3.98;100.00
19600;BME280;9947;57.722;12.012;2023-02-28T04:46:04;102585.28;;;-4.01;100.00
19600;BME280;9947;57.722;12.012;2023-02-28T04:48:32;102587.94;;;-4.00;100.00
19600;BME280;9947;57.722;12.012;2023-02-28T04:51:00;102585.31;;;-3.98;100.00
19600;BME280;9947;57.722;12.012;2023-02-28T04:53:28;102582.72;;;-3.94;100.00
19600;BME280;9947;57.722;12.012;2023-02-28T04:55:55;102582.75;;;-3.91;100.00
19600;BME280;9947;57.722;12.012;2023-02-28T04:58:23;102588.03;;;-3.91;100.00
19600;BME280;9947;57.722;12.012;2023-02-28T05:00:50;102580.06;;;-3.97;100.00
19600;BME280;9947;57.722;12.012;2023-02-28T05:03:24;102578.22;;;-4.04;100.00
19600;BME280;9947;57.722;12.012;2023-02-28T05:05:51;102583.47;;;-4.07;100.00
19600;BME280;9947;57.722;12.012;2023-02-28T05:08:20;102589.66;;;-4.04;100.00
19600;BME280;9947;57.722;12.012;2023-02-28T05:10:46;102592.25;;;-4.10;100.00
19600;BME280;9947;57.722;12.012;2023-02-28T05:13:13;102587.75;;;-4.15;100.00
19600;BME280;9947;57.722;12.012;2023-02-28T05:15:42;102585.06;;;-4.17;100.00
19600;BME280;9947;57.722;12.012;2023-02-28T05:18:09;102585.16;;;-4.14;100.00
19600;BME280;9947;57.722;12.012;2023-02-28T05:20:36;102582.34;;;-4.23;100.00
19600;BME280;9947;57.722;12.012;2023-02-28T05:23:03;102584.13;;;-4.23;100.00
19600;BME280;9947;57.722;12.012;2023-02-28T05:25:36;102581.53;;;-4.17;100.00
19600;BME280;9947;57.722;12.012;2023-02-28T05:28:03;102588.66;;;-4.15;100.00
19600;BME280;9947;57.722;12.012;2023-02-28T05:30:31;102587.78;;;-4.14;100.00
19600;BME280;9947;57.722;12.012;2023-02-28T05:32:59;102584.28;;;-4.13;100.00
19600;BME280;9947;57.722;12.012;2023-02-28T05:35:26;102579.88;;;-4.14;100.00
19600;BME280;9947;57.722;12.012;2023-02-28T05:37:53;102572.00;;;-4.08;100.00
19600;BME280;9947;57.722;12.012;2023-02-28T05:40:20;102572.00;;;-4.08;100.00
19600;BME280;9947;57.722;12.012;2023-02-28T05:42:47;102568.47;;;-4.10;100.00
19600;BME280;9947;57.722;12.012;2023-02-28T05:45:16;102564.94;;;-4.10;100.00
19600;BME280;9947;57.722;12.012;2023-02-28T05:47:43;102556.91;;;-4.18;100.00
19600;BME280;9947;57.722;12.012;2023-02-28T05:50:11;102560.41;;;-4.19;100.00
19600;BME280;9947;57.722;12.012;2023-02-28T05:52:38;102555.06;;;-4.25;100.00
19600;BME280;9947;57.722;12.012;2023-02-28T05:55:06;102555.06;;;-4.25;100.00
19600;BME280;9947;57.722;12.012;2023-02-28T05:57:33;102556.84;;;-4.22;100.00
19600;BME280;9947;57.722;12.012;2023-02-28T06:00:00;102554.22;;;-4.21;100.00
19600;BME280;9947;57.722;12.012;2023-02-28T06:02:34;102563.16;;;-4.11;100.00
19600;BME280;9947;57.722;12.012;2023-02-28T06:05:01;102550.88;;;-4.09;100.00
19600;BME280;9947;57.722;12.012;2023-02-28T06:07:30;102554.38;;;-4.10;100.00
19600;BME280;9947;57.722;12.012;2023-02-28T06:09:56;102550.91;;;-4.06;100.00
19600;BME280;9947;57.722;12.012;2023-02-28T06:12:23;102557.97;;;-4.04;100.00
19600;BME280;9947;57.722;12.012;2023-02-28T06:14:50;102552.66;;;-4.05;100.00
19600;BME280;9947;57.722;12.012;2023-02-28T06:17:17;102556.19;;;-4.05;100.00
19600;BME280;9947;57.722;12.012;2023-02-28T06:19:44;102554.44;;;-4.04;100.00
19600;BME280;9947;57.722;12.012;2023-02-28T06:22:11;102554.47;;;-4.03;100.00
19600;BME280;9947;57.722;12.012;2023-02-28T06:24:40;102557.16;;;-3.98;100.00
19600;BME280;9947;57.722;12.012;2023-02-28T06:27:07;102561.56;;;-3.97;100.00
19600;BME280;9947;57.722;12.012;2023-02-28T06:29:35;102556.28;;;-3.95;100.00
19600;BME280;9947;57.722;12.012;2023-02-28T06:32:05;102564.19;;;-3.98;100.00
19600;BME280;9947;57.722;12.012;2023-02-28T06:34:32;102574.75;;;-4.00;100.00
19600;BME280;9947;57.722;12.012;2023-02-28T06:36:59;102575.75;;;-3.90;100.00
19600;BME280;9947;57.722;12.012;2023-02-28T06:39:27;102581.94;;;-3.88;100.00
19600;BME280;9947;57.722;12.012;2023-02-28T06:41:55;102590.88;;;-3.76;100.00
19600;BME280;9947;57.722;12.012;2023-02-28T06:44:23;102599.69;;;-3.77;100.00
19600;BME280;9947;57.722;12.012;2023-02-28T06:46:56;102600.75;;;-3.61;100.00
19600;BME280;9947;57.722;12.012;2023-02-28T06:49:26;102605.22;;;-3.57;100.00
19600;BME280;9947;57.722;12.012;2023-02-28T06:51:54;102608.84;;;-3.44;100.00
19600;BME280;9947;57.722;12.012;2023-02-28T06:54:21;102609.88;;;-3.34;100.00
19600;BME280;9947;57.722;12.012;2023-02-28T06:56:48;102610.91;;;-3.17;100.00
19600;BME280;9947;57.722;12.012;2023-02-28T06:59:17;102606.63;;;-3.03;100.00
19600;BME280;9947;57.722;12.012;2023-02-28T07:01:50;102604.97;;;-2.89;100.00
19600;BME280;9947;57.722;12.012;2023-02-28T07:04:17;102613.88;;;-2.84;100.00
19600;BME280;9947;57.722;12.012;2023-02-28T07:06:44;102610.34;;;-2.84;100.00
19600;BME280;9947;57.722;12.012;2023-02-28T07:09:11;102614.78;;;-2.77;100.00
19600;BME280;9947;57.722;12.012;2023-02-28T07:11:39;102614.91;;;-2.62;100.00
19600;BME280;9947;57.722;12.012;2023-02-28T07:14:08;102611.47;;;-2.49;100.00
19600;BME280;9947;57.722;12.012;2023-02-28T07:16:39;102623.88;;;-2.40;100.00
19600;BME280;9947;57.722;12.012;2023-02-28T07:19:06;102627.44;;;-2.38;100.00
19600;BME280;9947;57.722;12.012;2023-02-28T07:21:33;102629.22;;;-2.35;100.00
19600;BME280;9947;57.722;12.012;2023-02-28T07:24:00;102635.47;;;-2.26;100.00
19600;BME280;9947;57.722;12.012;2023-02-28T07:26:26;102639.00;;;-2.28;100.00
19600;BME280;9947;57.722;12.012;2023-02-28T07:28:54;102634.63;;;-2.15;100.00
19600;BME280;9947;57.722;12.012;2023-02-28T07:31:21;102643.56;;;-2.03;100.00
19600;BME280;9947;57.722;12.012;2023-02-28T07:33:51;102634.78;;;-1.88;100.00
19600;BME280;9947;57.722;12.012;2023-02-28T07:36:19;102633.09;;;-1.80;100.00
19600;BME280;9947;57.722;12.012;2023-02-28T07:38:49;102628.69;;;-1.70;100.00
19600;BME280;9947;57.722;12.012;2023-02-28T07:41:17;102630.53;;;-1.56;100.00
19600;BME280;9947;57.722;12.012;2023-02-28T07:43:45;102626.97;;;-1.58;100.00
19600;BME280;9947;57.722;12.012;2023-02-28T07:46:18;102636.75;;;-1.44;100.00
19600;BME280;9947;57.722;12.012;2023-02-28T07:48:56;102640.34;;;-1.26;100.00
19600;BME280;9947;57.722;12.012;2023-02-28T07:51:24;102646.50;;;-1.31;100.00
19600;BME280;9947;57.722;12.012;2023-02-28T07:53:51;102643.88;;;-1.20;100.00
19600;BME280;9947;57.722;12.012;2023-02-28T07:56:18;102638.59;;;-1.08;100.00
19600;BME280;9947;57.722;12.012;2023-02-28T07:58:45;102635.06;;;-0.95;100.00
19600;BME280;9947;57.722;12.012;2023-02-28T08:01:12;102644.81;;;-0.89;100.00
19600;BME280;9947;57.722;12.012;2023-02-28T08:03:40;102643.94;;;-0.79;100.00
19600;BME280;9947;57.722;12.012;2023-02-28T08:06:15;102643.94;;;-0.59;100.00
19600;BME280;9947;57.722;12.012;2023-02-28T08:08:43;102640.41;;;-0.45;100.00
19600;BME280;9947;57.722;12.012;2023-02-28T08:11:11;102637.75;;;-0.42;100.00
19600;BME280;9947;57.722;12.012;2023-02-28T08:13:37;102637.69;;;-0.11;100.00
19600;BME280;9947;57.722;12.012;2023-02-28T08:16:05;102637.63;;;0.12;100.00
19600;BME280;9947;57.722;12.012;2023-02-28T08:18:32;102641.13;;;0.21;100.00
19600;BME280;9947;57.722;12.012;2023-02-28T08:20:59;102643.75;;;0.26;100.00
19600;BME280;9947;57.722;12.012;2023-02-28T08:23:27;102640.13;;;0.48;100.00
19600;BME280;9947;57.722;12.012;2023-02-28T08:25:54;102648.06;;;0.62;100.00
19600;BME280;9947;57.722;12.012;2023-02-28T08:28:24;102633.78;;;0.75;100.00
19600;BME280;9947;57.722;12.012;2023-02-28T08:30:51;102630.25;;;0.70;100.00
19600;BME280;9947;57.722;12.012;2023-02-28T08:33:19;102634.66;;;0.73;100.00
19600;BME280;9947;57.722;12.012;2023-02-28T08:35:45;102631.16;;;0.68;100.00
19600;BME280;9947;57.722;12.012;2023-02-28T08:38:12;102628.25;;;1.09;100.00
19600;BME280;9947;57.722;12.012;2023-02-28T08:40:40;102626.22;;;1.38;100.00
19600;BME280;9947;57.722;12.012;2023-02-28T08:43:08;102629.72;;;1.43;100.00
19600;BME280;9947;57.722;12.012;2023-02-28T08:45:42;102631.44;;;1.50;100.00
19600;BME280;9947;57.722;12.012;2023-02-28T08:48:08;102641.19;;;1.51;100.00
19600;BME280;9947;57.722;12.012;2023-02-28T08:50:35;102639.19;;;1.75;100.00
19600;BME280;9947;57.722;12.012;2023-02-28T08:53:02;102641.94;;;1.69;100.00
19600;BME280;9947;57.722;12.012;2023-02-28T08:55:29;102647.09;;;1.87;100.00
19600;BME280;9947;57.722;12.012;2023-02-28T08:57:58;102646.91;;;2.02;100.00
19600;BME280;9947;57.722;12.012;2023-02-28T09:00:26;102657.22;;;2.37;100.00
19600;BME280;9947;57.722;12.012;2023-02-28T09:02:53;102648.97;;;2.54;100.00
19600;BME280;9947;57.722;12.012;2023-02-28T09:05:20;102650.66;;;2.60;100.00
19600;BME280;9947;57.722;12.012;2023-02-28T09:07:49;102660.69;;;2.44;100.00
19600;BME280;9947;57.722;12.012;2023-02-28T09:10:17;102660.94;;;2.23;100.00
19600;BME280;9947;57.722;12.012;2023-02-28T09:12:44;102662.25;;;2.60;100.00
19600;BME280;9947;57.722;12.012;2023-02-28T09:15:13;102652.00;;;2.93;100.00
19600;BME280;9947;57.722;12.012;2023-02-28T09:17:40;102664.78;;;2.71;100.00
19600;BME280;9947;57.722;12.012;2023-02-28T09:20:09;102669.16;;;2.76;100.00
19600;BME280;9947;57.722;12.012;2023-02-28T09:22:36;102665.63;;;2.74;100.00
19600;BME280;9947;57.722;12.012;2023-02-28T09:25:09;102673.59;;;2.76;100.00
19600;BME280;9947;57.722;12.012;2023-02-28T09:27:36;102674.88;;;2.46;100.00
19600;BME280;9947;57.722;12.012;2023-02-28T09:30:04;102678.00;;;2.05;100.00
19600;BME280;9947;57.722;12.012;2023-02-28T09:32:33;102676.38;;;1.93;100.00
19600;BME280;9947;57.722;12.012;2023-02-28T09:34:59;102679.13;;;1.84;100.00
19600;BME280;9947;57.722;12.012;2023-02-28T09:37:26;102672.91;;;1.85;100.00
19600;BME280;9947;57.722;12.012;2023-02-28T09:39:54;102668.72;;;1.58;100.00
19600;BME280;9947;57.722;12.012;2023-02-28T09:42:31;102664.25;;;1.60;100.00
19600;BME280;9947;57.722;12.012;2023-02-28T09:45:03;102662.47;;;1.61;100.00
19600;BME280;9947;57.722;12.012;2023-02-28T09:47:38;102653.50;;;1.68;100.00
19600;BME280;9947;57.722;12.012;2023-02-28T09:50:17;102657.88;;;1.75;100.00
19600;BME280;9947;57.722;12.012;2023-02-28T09:52:49;102657.94;;;1.69;100.00
19600;BME280;9947;57.722;12.012;2023-02-28T09:55:30;102664.06;;;1.78;100.00
19600;BME280;9947;57.722;12.012;2023-02-28T09:58:00;102667.63;;;1.77;100.00
19600;BME280;9947;57.722;12.012;2023-02-28T10:00:32;102675.72;;;1.68;100.00
19600;BME280;9947;57.722;12.012;2023-02-28T10:03:26;102673.13;;;1.61;100.00
19600;BME280;9947;57.722;12.012;2023-02-28T10:05:58;102663.28;;;1.66;100.00
19600;BME280;9947;57.722;12.012;2023-02-28T10:08:31;102665.97;;;1.64;100.00
19600;BME280;9947;57.722;12.012;2023-02-28T10:11:02;102665.94;;;1.67;100.00
19600;BME280;9947;57.722;12.012;2023-02-28T10:13:35;102667.75;;;1.65;100.00
19600;BME280;9947;57.722;12.012;2023-02-28T10:16:07;102668.66;;;1.64;100.00
19600;BME280;9947;57.722;12.012;2023-02-28T10:18:42;102663.34;;;1.60;100.00
19600;BME280;9947;57.722;12.012;2023-02-28T10:21:23;102665.91;;;1.72;100.00
19600;BME280;9947;57.722;12.012;2023-02-28T10:23:59;102660.47;;;1.84;100.00
19600;BME280;9947;57.722;12.012;2023-02-28T10:26:31;102668.28;;;1.99;100.00
19600;BME280;9947;57.722;12.012;2023-02-28T10:28:59;102670.00;;;2.06;100.00
19600;BME280;9947;57.722;12.012;2023-02-28T10:31:28;102669.75;;;2.28;100.00
19600;BME280;9947;57.722;12.012;2023-02-28T10:33:56;102669.69;;;2.34;100.00
19600;BME280;9947;57.722;12.012;2023-02-28T10:36:23;102671.53;;;2.29;100.00
19600;BME280;9947;57.722;12.012;2023-02-28T10:38:51;102683.72;;;2.51;100.00
19600;BME280;9947;57.722;12.012;2023-02-28T10:41:28;102691.78;;;2.46;100.00
19600;BME280;9947;57.722;12.012;2023-02-28T10:44:14;102694.44;;;2.48;100.00
19600;BME280;9947;57.722;12.012;2023-02-28T10:46:42;102683.66;;;2.56;100.00
19600;BME280;9947;57.722;12.012;2023-02-28T10:49:17;102683.59;;;2.59;100.00
19600;BME280;9947;57.722;12.012;2023-02-28T10:51:55;102687.25;;;2.53;100.00
19600;BME280;9947;57.722;12.012;2023-02-28T10:54:26;102685.41;;;2.58;100.00
19600;BME280;9947;57.722;12.012;2023-02-28T10:57:16;102679.97;;;2.66;100.00
19600;BME280;9947;57.722;12.012;2023-02-28T10:59:44;102678.09;;;2.72;100.00
19600;BME280;9947;57.722;12.012;2023-02-28T11:02:33;102679.66;;;2.90;100.00
19600;BME280;9947;57.722;12.012;2023-02-28T11:05:02;102686.84;;;2.87;100.00
19600;BME280;9947;57.722;12.012;2023-02-28T11:07:29;102692.16;;;2.88;100.00
19600;BME280;9947;57.722;12.012;2023-02-28T11:09:57;102676.66;;;3.12;100.00
19600;BME280;9947;57.722;12.012;2023-02-28T11:12:27;102683.94;;;3.00;100.00
19600;BME280;9947;57.722;12.012;2023-02-28T11:14:58;102682.88;;;3.14;100.00
19600;BME280;9947;57.722;12.012;2023-02-28T11:17:28;102678.44;;;3.13;100.00
19600;BME280;9947;57.722;12.012;2023-02-28T11:19:58;102671.13;;;3.24;100.00
19600;BME280;9947;57.722;12.012;2023-02-28T11:22:35;102659.41;;;3.32;100.00
19600;BME280;9947;57.722;12.012;2023-02-28T11:25:20;102655.75;;;3.38;100.00
19600;BME280;9947;57.722;12.012;2023-02-28T11:27:50;102652.91;;;3.49;100.00
19600;BME280;9947;57.722;12.012;2023-02-28T11:30:27;102655.53;;;3.52;100.00
19600;BME280;9947;57.722;12.012;2023-02-28T11:32:54;102643.84;;;3.57;100.00
19600;BME280;9947;57.722;12.012;2023-02-28T11:35:24;102640.25;;;3.58;100.00
19600;BME280;9947;57.722;12.012;2023-02-28T11:37:54;102641.06;;;3.65;100.00
19600;BME280;9947;57.722;12.012;2023-02-28T11:40:28;102642.53;;;3.81;100.00
19600;BME280;9947;57.722;12.012;2023-02-28T11:43:11;102639.06;;;3.76;100.00
19600;BME280;9947;57.722;12.012;2023-02-28T11:45:49;102631.75;;;3.84;100.00
19600;BME280;9947;57.722;12.012;2023-02-28T11:48:23;102634.38;;;3.87;100.00
19600;BME280;9947;57.722;12.012;2023-02-28T11:51:03;102633.59;;;3.82;100.00
19600;BME280;9947;57.722;12.012;2023-02-28T11:53:58;102633.44;;;3.91;100.00
19600;BME280;9947;57.722;12.012;2023-02-28T11:56:32;102629.03;;;3.87;100.00
19600;BME280;9947;57.722;12.012;2023-02-28T11:59:13;102633.47;;;3.88;100.00
19600;BME280;9947;57.722;12.012;2023-02-28T12:02:00;102624.50;;;3.92;100.00
19600;BME280;9947;57.722;12.012;2023-02-28T12:04:36;102621.69;;;3.98;100.00
19600;BME280;9947;57.722;12.012;2023-02-28T12:07:13;102618.97;;;4.01;100.00
19600;BME280;9947;57.722;12.012;2023-02-28T12:09:54;102624.09;;;4.12;100.00
19600;BME280;9947;57.722;12.012;2023-02-28T12:12:37;102620.44;;;4.16;100.00
19600;BME280;9947;57.722;12.012;2023-02-28T12:15:23;102610.56;;;4.20;100.00
19600;BME280;9947;57.722;12.012;2023-02-28T12:18:09;102606.94;;;4.22;100.00
19600;BME280;9947;57.722;12.012;2023-02-28T12:20:45;102601.66;;;4.19;100.00
19600;BME280;9947;57.722;12.012;2023-02-28T12:23:37;102602.53;;;4.20;100.00
19600;BME280;9947;57.722;12.012;2023-02-28T12:26:16;102588.03;;;4.30;100.00
19600;BME280;9947;57.722;12.012;2023-02-28T12:28:51;102594.94;;;4.40;100.00
19600;BME280;9947;57.722;12.012;2023-02-28T12:31:22;102587.75;;;4.44;100.00
19600;BME280;9947;57.722;12.012;2023-02-28T12:34:10;102580.50;;;4.49;100.00
19600;BME280;9947;57.722;12.012;2023-02-28T12:36:39;102583.06;;;4.53;100.00
19600;BME280;9947;57.722;12.012;2023-02-28T12:39:16;102577.56;;;4.59;100.00
19600;BME280;9947;57.722;12.012;2023-02-28T12:41:50;102576.63;;;4.62;100.00
19600;BME280;9947;57.722;12.012;2023-02-28T12:44:21;102569.28;;;4.72;100.00
19600;BME280;9947;57.722;12.012;2023-02-28T12:46:51;102567.50;;;4.71;100.00
19600;BME280;9947;57.722;12.012;2023-02-28T12:49:25;102563.84;;;4.75;100.00
19600;BME280;9947;57.722;12.012;2023-02-28T12:51:56;102564.56;;;4.81;100.00
19600;BME280;9947;57.722;12.012;2023-02-28T12:54:29;102567.97;;;4.88;100.00
19600;BME280;9947;57.722;12.012;2023-02-28T12:57:09;102556.16;;;4.97;100.00
19600;BME280;9947;57.722;12.012;2023-02-28T12:59:41;102548.06;;;5.00;100.00
19600;BME280;9947;57.722;12.012;2023-02-28T13:02:27;102548.69;;;5.09;100.00
19600;BME280;9947;57.722;12.012;2023-02-28T13:05:15;102546.72;;;5.16;100.00
19600;BME280;9947;57.722;12.012;2023-02-28T13:08:04;102548.34;;;5.23;100.00
19600;BME280;9947;57.722;12.012;2023-02-28T13:10:39;102545.50;;;5.29;100.00